This is the latest recevied weather packets stored in our database for station/object 9W2SSS-1. If no packets are shown the sender has not sent any weather packets the latest 10 day(s).
| Time | Temp. | Humidity | Pressure | Rain* | Wind** | Luminosity | Snow |
|---|---|---|---|---|---|---|---|
| 1777962206 | 34.44° C | 52% | 1006.4 hPa | - | - | - | - |
| 1777961006 | 34.44° C | 52% | 1006.6 hPa | - | - | - | - |
| 1777959806 | 34.44° C | 52% | 1007.1 hPa | - | - | - | - |
| 1777958606 | 34.44° C | 52% | 1007.2 hPa | - | - | - | - |
| 1777957406 | 33.89° C | 54% | 1007.5 hPa | - | - | - | - |
| 1777956206 | 34.44° C | 52% | 1008.1 hPa | - | - | - | - |
| 1777955006 | 35° C | 50% | 1008.4 hPa | - | - | - | - |
| 1777953806 | 36.11° C | 48% | 1008.8 hPa | - | - | - | - |
| 1777952606 | 36.67° C | 47% | 1009 hPa | - | - | - | - |
| 1777951405 | 38.89° C | 41% | 1009.1 hPa | - | - | - | - |
| 1777950205 | 39.44° C | 39% | 1009.4 hPa | - | - | - | - |
| 1777949005 | 39.44° C | 40% | 1009.6 hPa | - | - | - | - |
| 1777947805 | 40.56° C | 38% | 1009.7 hPa | - | - | - | - |
| 1777946605 | 40.56° C | 39% | 1009.9 hPa | - | - | - | - |
| 1777945405 | 40° C | 40% | 1009.9 hPa | - | - | - | - |
| 1777944205 | 39.44° C | 40% | 1009.7 hPa | - | - | - | - |
| 1777943005 | 38.89° C | 43% | 1009.6 hPa | - | - | - | - |
| 1777941805 | 37.78° C | 45% | 1009.3 hPa | - | - | - | - |
| 1777940604 | 36.11° C | 48% | 1009 hPa | - | - | - | - |
| 1777939404 | 33.89° C | 54% | 1008.8 hPa | - | - | - | - |
| 1777938204 | 29.44° C | 66% | 1008.8 hPa | - | - | - | - |
| 1777937004 | 28.89° C | 69% | 1008.8 hPa | - | - | - | - |
| 1777935804 | 28.89° C | 69% | 1008.6 hPa | - | - | - | - |
| 1777933406 | 28.33° C | 69% | 1008.3 hPa | - | - | - | - |
| 1777932206 | 28.33° C | 68% | 1008 hPa | - | - | - | - |
* Rain since midnight (hover to see other rain measurements)
** Current wind speed in m/s (hover to see current wind gust speed)